sensor_id;sensor_type;location;lat;lon;timestamp;pressure;altitude;pressure_sealevel;temperature;humidity
55277;BME280;41136;51.478;-2.610;2023-02-15T00:00:09;101645.61;;;9.02;73.54
55277;BME280;41136;51.478;-2.610;2023-02-15T00:02:32;101641.55;;;8.66;73.83
55277;BME280;41136;51.478;-2.610;2023-02-15T00:04:58;101637.53;;;8.74;74.82
55277;BME280;41136;51.478;-2.610;2023-02-15T00:07:23;101639.47;;;8.95;75.96
55277;BME280;41136;51.478;-2.610;2023-02-15T00:09:49;101640.12;;;9.00;76.45
55277;BME280;41136;51.478;-2.610;2023-02-15T00:12:14;101638.28;;;8.73;77.24
55277;BME280;41136;51.478;-2.610;2023-02-15T00:14:45;101631.38;;;8.53;78.05
55277;BME280;41136;51.478;-2.610;2023-02-15T00:17:05;101631.00;;;8.57;78.51
55277;BME280;41136;51.478;-2.610;2023-02-15T00:19:31;101625.10;;;8.27;79.99
55277;BME280;41136;51.478;-2.610;2023-02-15T00:21:56;101623.24;;;8.27;80.09
55277;BME280;41136;51.478;-2.610;2023-02-15T00:24:22;101617.27;;;8.47;79.70
55277;BME280;41136;51.478;-2.610;2023-02-15T00:26:48;101615.24;;;8.51;79.78
55277;BME280;41136;51.478;-2.610;2023-02-15T00:29:14;101615.08;;;8.50;79.14
55277;BME280;41136;51.478;-2.610;2023-02-15T00:31:37;101609.12;;;8.86;78.07
55277;BME280;41136;51.478;-2.610;2023-02-15T00:34:05;101607.39;;;8.91;77.00
55277;BME280;41136;51.478;-2.610;2023-02-15T00:36:28;101602.36;;;9.13;75.47
55277;BME280;41136;51.478;-2.610;2023-02-15T00:38:54;101593.66;;;9.32;74.68
55277;BME280;41136;51.478;-2.610;2023-02-15T00:41:19;101593.71;;;9.48;74.21
55277;BME280;41136;51.478;-2.610;2023-02-15T00:43:44;101590.33;;;9.38;74.68
55277;BME280;41136;51.478;-2.610;2023-02-15T00:46:09;101591.11;;;9.00;74.70
55277;BME280;41136;51.478;-2.610;2023-02-15T00:48:35;101586.24;;;9.07;74.73
55277;BME280;41136;51.478;-2.610;2023-02-15T00:51:01;101586.04;;;9.60;74.26
55277;BME280;41136;51.478;-2.610;2023-02-15T00:53:27;101583.36;;;9.74;72.48
55277;BME280;41136;51.478;-2.610;2023-02-15T00:55:51;101579.54;;;9.53;73.07
55277;BME280;41136;51.478;-2.610;2023-02-15T00:58:17;101578.54;;;9.73;72.85
55277;BME280;41136;51.478;-2.610;2023-02-15T01:00:44;101577.25;;;8.84;74.17
55277;BME280;41136;51.478;-2.610;2023-02-15T01:03:08;101580.49;;;9.55;73.42
55277;BME280;41136;51.478;-2.610;2023-02-15T01:05:34;101579.25;;;9.44;73.66
55277;BME280;41136;51.478;-2.610;2023-02-15T01:07:59;101576.13;;;9.24;74.07
55277;BME280;41136;51.478;-2.610;2023-02-15T01:10:25;101577.31;;;8.74;74.01
55277;BME280;41136;51.478;-2.610;2023-02-15T01:12:51;101575.88;;;9.30;72.68
55277;BME280;41136;51.478;-2.610;2023-02-15T01:15:16;101569.22;;;9.47;72.66
55277;BME280;41136;51.478;-2.610;2023-02-15T01:17:42;101569.44;;;9.62;72.00
55277;BME280;41136;51.478;-2.610;2023-02-15T01:20:08;101571.11;;;8.87;74.21
55277;BME280;41136;51.478;-2.610;2023-02-15T01:22:33;101569.65;;;8.24;76.58
55277;BME280;41136;51.478;-2.610;2023-02-15T01:24:59;101574.62;;;8.33;77.06
55277;BME280;41136;51.478;-2.610;2023-02-15T01:27:24;101574.13;;;8.98;76.20
55277;BME280;41136;51.478;-2.610;2023-02-15T01:29:50;101566.32;;;10.00;72.62
55277;BME280;41136;51.478;-2.610;2023-02-15T01:32:15;101560.57;;;9.44;72.45
55277;BME280;41136;51.478;-2.610;2023-02-15T01:34:41;101551.20;;;9.79;73.15
55277;BME280;41136;51.478;-2.610;2023-02-15T01:37:06;101547.64;;;9.50;73.90
55277;BME280;41136;51.478;-2.610;2023-02-15T01:39:31;101544.84;;;9.16;74.78
55277;BME280;41136;51.478;-2.610;2023-02-15T01:41:57;101550.21;;;9.38;75.36
55277;BME280;41136;51.478;-2.610;2023-02-15T01:46:51;101538.32;;;9.07;77.28
55277;BME280;41136;51.478;-2.610;2023-02-15T01:49:16;101537.95;;;9.15;78.00
55277;BME280;41136;51.478;-2.610;2023-02-15T01:53:39;101531.80;;;8.67;74.99
55277;BME280;41136;51.478;-2.610;2023-02-15T01:56:06;101536.72;;;8.87;73.75
55277;BME280;41136;51.478;-2.610;2023-02-15T01:58:28;101539.44;;;9.74;72.26
55277;BME280;41136;51.478;-2.610;2023-02-15T02:00:53;101538.54;;;9.34;72.19
55277;BME280;41136;51.478;-2.610;2023-02-15T02:03:18;101533.28;;;10.15;71.94
55277;BME280;41136;51.478;-2.610;2023-02-15T02:05:43;101529.08;;;9.81;73.86
55277;BME280;41136;51.478;-2.610;2023-02-15T02:08:09;101526.29;;;9.61;75.96
55277;BME280;41136;51.478;-2.610;2023-02-15T02:10:35;101527.55;;;9.45;77.81
55277;BME280;41136;51.478;-2.610;2023-02-15T02:13:02;101530.29;;;9.18;77.92
55277;BME280;41136;51.478;-2.610;2023-02-15T02:15:31;101520.23;;;9.51;78.17
55277;BME280;41136;51.478;-2.610;2023-02-15T02:18:00;101519.14;;;9.30;79.66
55277;BME280;41136;51.478;-2.610;2023-02-15T02:22:50;101515.29;;;8.96;81.14
55277;BME280;41136;51.478;-2.610;2023-02-15T02:25:12;101511.02;;;9.22;80.84
55277;BME280;41136;51.478;-2.610;2023-02-15T02:27:38;101501.81;;;9.01;80.91
55277;BME280;41136;51.478;-2.610;2023-02-15T02:30:12;101494.87;;;9.36;80.77
55277;BME280;41136;51.478;-2.610;2023-02-15T02:34:53;101488.11;;;9.47;80.79
55277;BME280;41136;51.478;-2.610;2023-02-15T02:37:21;101484.89;;;9.51;80.57
55277;BME280;41136;51.478;-2.610;2023-02-15T02:39:47;101477.99;;;9.50;80.71
55277;BME280;41136;51.478;-2.610;2023-02-15T02:42:10;101472.67;;;9.11;82.81
55277;BME280;41136;51.478;-2.610;2023-02-15T02:44:40;101469.54;;;8.96;83.67
55277;BME280;41136;51.478;-2.610;2023-02-15T02:46:59;101464.75;;;8.91;84.27
55277;BME280;41136;51.478;-2.610;2023-02-15T02:49:31;101469.42;;;8.57;86.16
55277;BME280;41136;51.478;-2.610;2023-02-15T02:54:13;101458.59;;;9.01;85.96
55277;BME280;41136;51.478;-2.610;2023-02-15T02:56:43;101453.86;;;8.78;85.97
55277;BME280;41136;51.478;-2.610;2023-02-15T02:59:09;101454.15;;;8.85;86.66
55277;BME280;41136;51.478;-2.610;2023-02-15T03:01:32;101449.87;;;8.58;88.07
55277;BME280;41136;51.478;-2.610;2023-02-15T03:03:58;101448.78;;;8.16;90.51
55277;BME280;41136;51.478;-2.610;2023-02-15T03:06:24;101443.22;;;8.45;91.10
55277;BME280;41136;51.478;-2.610;2023-02-15T03:08:50;101445.28;;;8.13;91.41
55277;BME280;41136;51.478;-2.610;2023-02-15T03:11:12;101438.96;;;8.34;92.71
55277;BME280;41136;51.478;-2.610;2023-02-15T03:13:37;101429.87;;;8.04;94.63
55277;BME280;41136;51.478;-2.610;2023-02-15T03:16:03;101425.79;;;7.92;94.69
55277;BME280;41136;51.478;-2.610;2023-02-15T03:18:30;101416.59;;;8.32;94.82
55277;BME280;41136;51.478;-2.610;2023-02-15T03:20:53;101418.15;;;8.14;94.75
55277;BME280;41136;51.478;-2.610;2023-02-15T03:23:20;101414.15;;;8.32;94.99
55277;BME280;41136;51.478;-2.610;2023-02-15T03:25:46;101413.37;;;8.21;95.45
55277;BME280;41136;51.478;-2.610;2023-02-15T03:28:10;101411.69;;;8.22;95.14
55277;BME280;41136;51.478;-2.610;2023-02-15T03:30:35;101405.78;;;8.33;95.18
55277;BME280;41136;51.478;-2.610;2023-02-15T03:33:00;101402.65;;;8.19;95.58
55277;BME280;41136;51.478;-2.610;2023-02-15T03:35:26;101392.70;;;8.07;96.06
55277;BME280;41136;51.478;-2.610;2023-02-15T03:37:53;101390.87;;;8.17;95.83
55277;BME280;41136;51.478;-2.610;2023-02-15T03:40:19;101387.98;;;8.24;95.99
55277;BME280;41136;51.478;-2.610;2023-02-15T03:42:41;101388.13;;;8.01;96.02
55277;BME280;41136;51.478;-2.610;2023-02-15T03:45:09;101379.36;;;8.31;95.89
55277;BME280;41136;51.478;-2.610;2023-02-15T03:47:33;101379.08;;;8.17;95.62
55277;BME280;41136;51.478;-2.610;2023-02-15T03:50:00;101383.03;;;8.22;96.41
55277;BME280;41136;51.478;-2.610;2023-02-15T03:52:23;101384.12;;;8.45;96.22
55277;BME280;41136;51.478;-2.610;2023-02-15T03:54:47;101384.15;;;8.42;96.36
55277;BME280;41136;51.478;-2.610;2023-02-15T03:57:17;101383.30;;;8.56;95.73
55277;BME280;41136;51.478;-2.610;2023-02-15T03:59:38;101380.10;;;8.40;95.31
55277;BME280;41136;51.478;-2.610;2023-02-15T04:02:10;101375.56;;;8.12;94.97
55277;BME280;41136;51.478;-2.610;2023-02-15T04:04:33;101371.04;;;8.47;95.04
55277;BME280;41136;51.478;-2.610;2023-02-15T04:06:54;101370.82;;;8.70;95.12
55277;BME280;41136;51.478;-2.610;2023-02-15T04:09:20;101373.45;;;8.59;94.96
55277;BME280;41136;51.478;-2.610;2023-02-15T04:11:45;101374.60;;;8.50;95.05
55277;BME280;41136;51.478;-2.610;2023-02-15T04:14:10;101380.19;;;8.89;92.70
55277;BME280;41136;51.478;-2.610;2023-02-15T04:16:36;101368.78;;;9.32;91.79
55277;BME280;41136;51.478;-2.610;2023-02-15T04:19:01;101366.37;;;9.05;91.55
55277;BME280;41136;51.478;-2.610;2023-02-15T04:21:28;101369.71;;;8.87;92.34
55277;BME280;41136;51.478;-2.610;2023-02-15T04:23:52;101364.68;;;8.68;93.18
55277;BME280;41136;51.478;-2.610;2023-02-15T04:26:18;101361.46;;;8.92;94.16
55277;BME280;41136;51.478;-2.610;2023-02-15T04:28:43;101358.79;;;8.51;95.08
55277;BME280;41136;51.478;-2.610;2023-02-15T04:31:09;101351.99;;;8.51;95.30
55277;BME280;41136;51.478;-2.610;2023-02-15T04:33:34;101351.29;;;8.56;96.09
55277;BME280;41136;51.478;-2.610;2023-02-15T04:36:00;101353.18;;;8.67;96.04
55277;BME280;41136;51.478;-2.610;2023-02-15T04:38:25;101348.37;;;8.32;97.34
55277;BME280;41136;51.478;-2.610;2023-02-15T04:40:51;101356.28;;;8.39;97.86
55277;BME280;41136;51.478;-2.610;2023-02-15T04:43:16;101359.96;;;8.62;97.57
55277;BME280;41136;51.478;-2.610;2023-02-15T04:45:48;101358.83;;;8.48;96.70
55277;BME280;41136;51.478;-2.610;2023-02-15T04:48:08;101354.97;;;8.63;95.95
55277;BME280;41136;51.478;-2.610;2023-02-15T04:50:33;101350.43;;;9.08;95.23
55277;BME280;41136;51.478;-2.610;2023-02-15T04:52:58;101351.23;;;8.88;94.46
55277;BME280;41136;51.478;-2.610;2023-02-15T04:55:23;101348.59;;;9.07;94.38
55277;BME280;41136;51.478;-2.610;2023-02-15T05:00:55;101354.48;;;8.43;91.38
55277;BME280;41136;51.478;-2.610;2023-02-15T05:03:19;101350.61;;;8.35;90.55
55277;BME280;41136;51.478;-2.610;2023-02-15T05:05:45;101353.75;;;8.40;91.21
55277;BME280;41136;51.478;-2.610;2023-02-15T05:08:10;101352.95;;;8.24;91.98
55277;BME280;41136;51.478;-2.610;2023-02-15T05:10:35;101348.24;;;8.77;92.74
55277;BME280;41136;51.478;-2.610;2023-02-15T05:13:01;101346.44;;;8.85;94.03
55277;BME280;41136;51.478;-2.610;2023-02-15T05:15:26;101342.86;;;8.72;94.58
55277;BME280;41136;51.478;-2.610;2023-02-15T05:17:52;101341.91;;;8.88;94.34
55277;BME280;41136;51.478;-2.610;2023-02-15T05:20:18;101334.83;;;8.95;94.06
55277;BME280;41136;51.478;-2.610;2023-02-15T05:22:43;101334.42;;;8.82;94.35
55277;BME280;41136;51.478;-2.610;2023-02-15T05:25:09;101336.54;;;8.70;94.70
55277;BME280;41136;51.478;-2.610;2023-02-15T05:27:35;101335.69;;;8.58;95.43
55277;BME280;41136;51.478;-2.610;2023-02-15T05:30:00;101339.25;;;8.72;96.00
55277;BME280;41136;51.478;-2.610;2023-02-15T05:32:25;101336.09;;;8.49;96.62
55277;BME280;41136;51.478;-2.610;2023-02-15T05:34:51;101334.35;;;8.43;96.65
55277;BME280;41136;51.478;-2.610;2023-02-15T05:37:15;101329.69;;;8.25;97.26
55277;BME280;41136;51.478;-2.610;2023-02-15T05:39:41;101330.00;;;7.86;97.59
55277;BME280;41136;51.478;-2.610;2023-02-15T05:42:07;101330.16;;;8.06;97.72
55277;BME280;41136;51.478;-2.610;2023-02-15T05:44:32;101332.03;;;8.16;97.37
55277;BME280;41136;51.478;-2.610;2023-02-15T05:46:57;101334.90;;;8.30;96.97
55277;BME280;41136;51.478;-2.610;2023-02-15T05:49:22;101333.64;;;8.28;96.68
55277;BME280;41136;51.478;-2.610;2023-02-15T05:51:48;101339.51;;;8.64;95.89
55277;BME280;41136;51.478;-2.610;2023-02-15T05:54:13;101339.49;;;8.24;95.55
55277;BME280;41136;51.478;-2.610;2023-02-15T05:56:39;101338.21;;;8.04;95.33
55277;BME280;41136;51.478;-2.610;2023-02-15T05:59:04;101336.92;;;8.37;95.99
55277;BME280;41136;51.478;-2.610;2023-02-15T06:01:29;101340.12;;;8.03;98.58
55277;BME280;41136;51.478;-2.610;2023-02-15T06:03:55;101339.31;;;7.90;99.85
55277;BME280;41136;51.478;-2.610;2023-02-15T06:06:21;101342.09;;;7.89;100.00
55277;BME280;41136;51.478;-2.610;2023-02-15T06:08:47;101341.51;;;7.70;100.00
55277;BME280;41136;51.478;-2.610;2023-02-15T06:11:12;101344.11;;;8.18;100.00
55277;BME280;41136;51.478;-2.610;2023-02-15T06:13:38;101342.96;;;8.28;100.00
55277;BME280;41136;51.478;-2.610;2023-02-15T06:16:04;101346.73;;;8.17;100.00
55277;BME280;41136;51.478;-2.610;2023-02-15T06:18:29;101349.31;;;8.41;98.94
55277;BME280;41136;51.478;-2.610;2023-02-15T06:20:54;101347.47;;;8.60;97.48
55277;BME280;41136;51.478;-2.610;2023-02-15T06:23:19;101344.23;;;8.35;97.43
55277;BME280;41136;51.478;-2.610;2023-02-15T06:25:45;101349.34;;;8.75;96.25
55277;BME280;41136;51.478;-2.610;2023-02-15T06:28:10;101352.66;;;8.90;95.60
55277;BME280;41136;51.478;-2.610;2023-02-15T06:30:35;101352.53;;;8.67;95.12
55277;BME280;41136;51.478;-2.610;2023-02-15T06:33:01;101350.57;;;8.86;95.25
55277;BME280;41136;51.478;-2.610;2023-02-15T06:35:26;101349.95;;;8.96;95.14
55277;BME280;41136;51.478;-2.610;2023-02-15T06:37:52;101347.29;;;8.84;95.27
55277;BME280;41136;51.478;-2.610;2023-02-15T06:40:17;101344.19;;;8.61;95.53
55277;BME280;41136;51.478;-2.610;2023-02-15T06:42:42;101348.47;;;8.93;95.58
55277;BME280;41136;51.478;-2.610;2023-02-15T06:45:08;101349.83;;;8.58;96.61
55277;BME280;41136;51.478;-2.610;2023-02-15T06:47:33;101348.20;;;8.56;96.52
55277;BME280;41136;51.478;-2.610;2023-02-15T06:49:58;101347.96;;;7.55;98.11
55277;BME280;41136;51.478;-2.610;2023-02-15T06:52:24;101349.40;;;8.44;97.75
55277;BME280;41136;51.478;-2.610;2023-02-15T06:54:49;101347.55;;;8.56;96.84
55277;BME280;41136;51.478;-2.610;2023-02-15T06:57:14;101335.00;;;9.23;94.59
55277;BME280;41136;51.478;-2.610;2023-02-15T06:59:40;101332.40;;;9.25;94.31
55277;BME280;41136;51.478;-2.610;2023-02-15T07:02:06;101335.68;;;9.30;93.89
55277;BME280;41136;51.478;-2.610;2023-02-15T07:04:31;101328.78;;;9.21;94.21
55277;BME280;41136;51.478;-2.610;2023-02-15T07:06:57;101332.04;;;9.02;95.47
55277;BME280;41136;51.478;-2.610;2023-02-15T07:09:22;101330.93;;;9.23;96.64
55277;BME280;41136;51.478;-2.610;2023-02-15T07:11:48;101324.69;;;8.65;97.49
55277;BME280;41136;51.478;-2.610;2023-02-15T07:14:13;101318.10;;;9.00;97.12
55277;BME280;41136;51.478;-2.610;2023-02-15T07:16:38;101320.83;;;9.12;96.54
55277;BME280;41136;51.478;-2.610;2023-02-15T07:19:04;101325.70;;;8.79;96.24
55277;BME280;41136;51.478;-2.610;2023-02-15T07:21:29;101324.90;;;8.73;96.69
55277;BME280;41136;51.478;-2.610;2023-02-15T07:23:56;101324.40;;;9.03;97.20
55277;BME280;41136;51.478;-2.610;2023-02-15T07:26:20;101329.94;;;8.92;98.02
55277;BME280;41136;51.478;-2.610;2023-02-15T07:28:45;101329.48;;;9.10;97.66
55277;BME280;41136;51.478;-2.610;2023-02-15T07:31:11;101326.33;;;8.82;97.75
55277;BME280;41136;51.478;-2.610;2023-02-15T07:33:37;101331.41;;;9.03;98.14
55277;BME280;41136;51.478;-2.610;2023-02-15T07:36:03;101336.22;;;9.08;98.11
55277;BME280;41136;51.478;-2.610;2023-02-15T07:38:30;101342.18;;;8.94;98.69
55277;BME280;41136;51.478;-2.610;2023-02-15T07:40:57;101348.41;;;8.79;98.78
55277;BME280;41136;51.478;-2.610;2023-02-15T07:43:18;101356.80;;;8.98;98.35
55277;BME280;41136;51.478;-2.610;2023-02-15T07:45:43;101351.44;;;8.89;98.41
55277;BME280;41136;51.478;-2.610;2023-02-15T07:48:09;101350.82;;;9.32;98.94
55277;BME280;41136;51.478;-2.610;2023-02-15T07:50:34;101349.41;;;8.75;99.84
55277;BME280;41136;51.478;-2.610;2023-02-15T07:53:01;101352.65;;;8.90;99.37
55277;BME280;41136;51.478;-2.610;2023-02-15T07:55:25;101360.69;;;8.65;100.00
55277;BME280;41136;51.478;-2.610;2023-02-15T07:57:51;101361.72;;;8.47;100.00
55277;BME280;41136;51.478;-2.610;2023-02-15T08:00:18;101356.85;;;9.45;99.30
55277;BME280;41136;51.478;-2.610;2023-02-15T08:02:41;101349.87;;;9.52;98.91
55277;BME280;41136;51.478;-2.610;2023-02-15T08:05:06;101355.26;;;9.67;99.10
55277;BME280;41136;51.478;-2.610;2023-02-15T08:07:32;101357.90;;;9.89;98.66
55277;BME280;41136;51.478;-2.610;2023-02-15T08:09:57;101355.69;;;9.84;97.64
55277;BME280;41136;51.478;-2.610;2023-02-15T08:12:23;101350.59;;;10.42;97.50
55277;BME280;41136;51.478;-2.610;2023-02-15T08:14:48;101348.10;;;9.82;98.00
55277;BME280;41136;51.478;-2.610;2023-02-15T08:17:13;101352.49;;;9.94;98.53
55277;BME280;41136;51.478;-2.610;2023-02-15T08:19:39;101351.09;;;9.67;99.20
55277;BME280;41136;51.478;-2.610;2023-02-15T08:22:06;101346.93;;;10.06;100.00
55277;BME280;41136;51.478;-2.610;2023-02-15T08:24:31;101351.23;;;9.80;100.00
55277;BME280;41136;51.478;-2.610;2023-02-15T08:26:56;101346.90;;;9.79;100.00
55277;BME280;41136;51.478;-2.610;2023-02-15T08:29:22;101342.22;;;10.14;100.00
55277;BME280;41136;51.478;-2.610;2023-02-15T08:31:46;101337.58;;;9.86;100.00
55277;BME280;41136;51.478;-2.610;2023-02-15T08:34:14;101339.78;;;9.90;100.00
55277;BME280;41136;51.478;-2.610;2023-02-15T08:36:37;101344.65;;;10.38;100.00
55277;BME280;41136;51.478;-2.610;2023-02-15T08:39:04;101350.58;;;10.16;100.00
55277;BME280;41136;51.478;-2.610;2023-02-15T08:41:30;101347.91;;;10.05;100.00
55277;BME280;41136;51.478;-2.610;2023-02-15T08:43:55;101347.23;;;9.69;100.00
55277;BME280;41136;51.478;-2.610;2023-02-15T08:46:20;101354.85;;;10.07;100.00
55277;BME280;41136;51.478;-2.610;2023-02-15T08:48:45;101351.54;;;9.68;100.00
55277;BME280;41136;51.478;-2.610;2023-02-15T08:51:12;101344.48;;;9.81;100.00
55277;BME280;41136;51.478;-2.610;2023-02-15T08:53:36;101337.69;;;9.95;100.00
55277;BME280;41136;51.478;-2.610;2023-02-15T08:56:01;101332.68;;;9.75;100.00
55277;BME280;41136;51.478;-2.610;2023-02-15T08:58:28;101326.62;;;9.82;100.00
55277;BME280;41136;51.478;-2.610;2023-02-15T09:00:53;101324.94;;;10.19;100.00
55277;BME280;41136;51.478;-2.610;2023-02-15T09:03:18;101324.03;;;10.35;100.00
55277;BME280;41136;51.478;-2.610;2023-02-15T09:05:44;101323.90;;;10.17;100.00
55277;BME280;41136;51.478;-2.610;2023-02-15T09:08:09;101322.35;;;10.36;100.00
55277;BME280;41136;51.478;-2.610;2023-02-15T09:10:35;101323.77;;;10.56;100.00
55277;BME280;41136;51.478;-2.610;2023-02-15T09:13:00;101326.77;;;10.60;100.00
55277;BME280;41136;51.478;-2.610;2023-02-15T09:15:26;101323.18;;;10.54;100.00
55277;BME280;41136;51.478;-2.610;2023-02-15T09:17:51;101319.81;;;10.36;100.00
55277;BME280;41136;51.478;-2.610;2023-02-15T09:20:16;101320.46;;;10.27;100.00
55277;BME280;41136;51.478;-2.610;2023-02-15T09:22:41;101316.09;;;10.47;100.00
55277;BME280;41136;51.478;-2.610;2023-02-15T09:25:07;101324.05;;;10.86;100.00
55277;BME280;41136;51.478;-2.610;2023-02-15T09:27:32;101325.34;;;10.82;100.00
55277;BME280;41136;51.478;-2.610;2023-02-15T09:29:58;101326.48;;;11.17;100.00
55277;BME280;41136;51.478;-2.610;2023-02-15T09:32:23;101327.87;;;11.13;100.00
55277;BME280;41136;51.478;-2.610;2023-02-15T09:34:49;101325.87;;;10.92;100.00
55277;BME280;41136;51.478;-2.610;2023-02-15T09:37:14;101323.64;;;11.54;100.00
55277;BME280;41136;51.478;-2.610;2023-02-15T09:39:42;101325.65;;;11.80;100.00
55277;BME280;41136;51.478;-2.610;2023-02-15T09:42:21;101323.76;;;11.90;100.00
55277;BME280;41136;51.478;-2.610;2023-02-15T09:44:42;101322.26;;;11.90;100.00
55277;BME280;41136;51.478;-2.610;2023-02-15T09:47:11;101317.17;;;11.59;100.00
55277;BME280;41136;51.478;-2.610;2023-02-15T09:49:27;101314.08;;;11.71;100.00
55277;BME280;41136;51.478;-2.610;2023-02-15T09:52:00;101318.65;;;11.71;100.00
55277;BME280;41136;51.478;-2.610;2023-02-15T09:54:24;101319.80;;;11.88;100.00
55277;BME280;41136;51.478;-2.610;2023-02-15T09:56:41;101315.69;;;12.12;100.00
55277;BME280;41136;51.478;-2.610;2023-02-15T09:59:11;101317.13;;;11.52;100.00
55277;BME280;41136;51.478;-2.610;2023-02-15T10:01:35;101324.85;;;11.61;100.00
55277;BME280;41136;51.478;-2.610;2023-02-15T10:04:04;101321.60;;;11.59;100.00
55277;BME280;41136;51.478;-2.610;2023-02-15T10:08:52;101311.54;;;12.19;100.00
55277;BME280;41136;51.478;-2.610;2023-02-15T10:11:15;101315.35;;;11.95;100.00
55277;BME280;41136;51.478;-2.610;2023-02-15T10:13:40;101314.61;;;12.22;100.00
55277;BME280;41136;51.478;-2.610;2023-02-15T10:16:10;101318.65;;;12.67;100.00
55277;BME280;41136;51.478;-2.610;2023-02-15T10:18:36;101322.20;;;13.07;100.00
55277;BME280;41136;51.478;-2.610;2023-02-15T10:20:56;101321.59;;;12.93;100.00
55277;BME280;41136;51.478;-2.610;2023-02-15T10:23:32;101320.51;;;12.91;100.00
55277;BME280;41136;51.478;-2.610;2023-02-15T10:25:47;101323.26;;;12.98;100.00
55277;BME280;41136;51.478;-2.610;2023-02-15T10:28:14;101327.86;;;13.20;100.00
55277;BME280;41136;51.478;-2.610;2023-02-15T10:30:41;101326.37;;;13.27;100.00
55277;BME280;41136;51.478;-2.610;2023-02-15T10:33:00;101326.73;;;12.35;100.00
55277;BME280;41136;51.478;-2.610;2023-02-15T10:35:28;101330.03;;;12.84;100.00
55277;BME280;41136;51.478;-2.610;2023-02-15T10:37:55;101330.66;;;12.84;100.00
55277;BME280;41136;51.478;-2.610;2023-02-15T10:40:22;101328.76;;;12.97;100.00
55277;BME280;41136;51.478;-2.610;2023-02-15T10:42:47;101331.69;;;12.88;100.00
55277;BME280;41136;51.478;-2.610;2023-02-15T10:45:12;101331.05;;;13.18;100.00
55277;BME280;41136;51.478;-2.610;2023-02-15T10:47:40;101332.92;;;12.52;100.00
55277;BME280;41136;51.478;-2.610;2023-02-15T10:50:09;101333.08;;;13.26;100.00
55277;BME280;41136;51.478;-2.610;2023-02-15T10:52:28;101335.67;;;12.96;99.23
55277;BME280;41136;51.478;-2.610;2023-02-15T10:54:48;101339.62;;;13.05;98.93
55277;BME280;41136;51.478;-2.610;2023-02-15T10:57:16;101336.34;;;13.67;98.67
55277;BME280;41136;51.478;-2.610;2023-02-15T10:59:49;101334.90;;;13.61;97.75
55277;BME280;41136;51.478;-2.610;2023-02-15T11:02:10;101324.32;;;14.14;96.52
55277;BME280;41136;51.478;-2.610;2023-02-15T11:04:41;101327.67;;;13.40;97.16
55277;BME280;41136;51.478;-2.610;2023-02-15T11:06:56;101331.06;;;13.72;97.90
55277;BME280;41136;51.478;-2.610;2023-02-15T11:09:21;101327.84;;;13.64;97.68
55277;BME280;41136;51.478;-2.610;2023-02-15T11:11:48;101328.44;;;13.03;99.82
55277;BME280;41136;51.478;-2.610;2023-02-15T11:14:14;101332.25;;;13.52;98.99
55277;BME280;41136;51.478;-2.610;2023-02-15T11:16:37;101335.49;;;13.75;99.63
55277;BME280;41136;51.478;-2.610;2023-02-15T11:19:03;101334.42;;;13.37;99.86
55277;BME280;41136;51.478;-2.610;2023-02-15T11:21:29;101335.15;;;13.47;100.00
55277;BME280;41136;51.478;-2.610;2023-02-15T11:23:52;101337.68;;;13.22;99.87
55277;BME280;41136;51.478;-2.610;2023-02-15T11:26:21;101340.05;;;13.30;100.00
55277;BME280;41136;51.478;-2.610;2023-02-15T11:28:47;101332.57;;;13.58;99.23
55277;BME280;41136;51.478;-2.610;2023-02-15T11:31:13;101337.21;;;13.56;99.49
55277;BME280;41136;51.478;-2.610;2023-02-15T11:33:37;101330.88;;;13.61;100.00
55277;BME280;41136;51.478;-2.610;2023-02-15T11:36:00;101334.20;;;14.02;98.99
55277;BME280;41136;51.478;-2.610;2023-02-15T11:38:27;101332.56;;;14.11;99.66
55277;BME280;41136;51.478;-2.610;2023-02-15T11:40:50;101335.24;;;14.30;98.14
55277;BME280;41136;51.478;-2.610;2023-02-15T11:43:17;101331.70;;;14.08;98.98
55277;BME280;41136;51.478;-2.610;2023-02-15T11:45:41;101325.46;;;13.60;100.00
55277;BME280;41136;51.478;-2.610;2023-02-15T11:48:10;101324.87;;;13.61;100.00
55277;BME280;41136;51.478;-2.610;2023-02-15T11:50:32;101321.22;;;13.84;100.00
55277;BME280;41136;51.478;-2.610;2023-02-15T11:53:00;101315.75;;;13.94;98.72
55277;BME280;41136;51.478;-2.610;2023-02-15T11:55:23;101315.44;;;14.28;98.93
55277;BME280;41136;51.478;-2.610;2023-02-15T11:57:53;101312.60;;;13.57;100.00
55277;BME280;41136;51.478;-2.610;2023-02-15T12:00:22;101310.15;;;14.09;99.76
55277;BME280;41136;51.478;-2.610;2023-02-15T12:02:41;101308.39;;;13.87;99.88
55277;BME280;41136;51.478;-2.610;2023-02-15T12:05:09;101305.51;;;13.26;100.00
55277;BME280;41136;51.478;-2.610;2023-02-15T12:07:34;101303.05;;;14.01;98.91
55277;BME280;41136;51.478;-2.610;2023-02-15T12:10:02;101303.76;;;14.16;98.03
55277;BME280;41136;51.478;-2.610;2023-02-15T12:12:23;101298.17;;;14.66;97.17
55277;BME280;41136;51.478;-2.610;2023-02-15T12:14:48;101298.13;;;14.29;96.17
55277;BME280;41136;51.478;-2.610;2023-02-15T12:17:13;101299.05;;;13.70;98.04
55277;BME280;41136;51.478;-2.610;2023-02-15T12:19:39;101293.89;;;14.51;96.50
55277;BME280;41136;51.478;-2.610;2023-02-15T12:22:03;101287.25;;;14.06;97.19
55277;BME280;41136;51.478;-2.610;2023-02-15T12:24:30;101288.12;;;14.66;96.37
55277;BME280;41136;51.478;-2.610;2023-02-15T12:26:59;101280.52;;;14.91;95.20
55277;BME280;41136;51.478;-2.610;2023-02-15T12:29:19;101281.66;;;14.27;96.87
55277;BME280;41136;51.478;-2.610;2023-02-15T12:31:45;101271.86;;;14.38;96.17
55277;BME280;41136;51.478;-2.610;2023-02-15T12:34:12;101269.03;;;14.29;97.44
55277;BME280;41136;51.478;-2.610;2023-02-15T12:36:42;101267.41;;;14.65;96.58
55277;BME280;41136;51.478;-2.610;2023-02-15T12:39:05;101259.47;;;14.97;95.69
55277;BME280;41136;51.478;-2.610;2023-02-15T12:41:26;101264.39;;;14.45;96.30
55277;BME280;41136;51.478;-2.610;2023-02-15T12:46:21;101253.85;;;14.82;95.83
55277;BME280;41136;51.478;-2.610;2023-02-15T12:48:42;101253.09;;;15.50;92.82
55277;BME280;41136;51.478;-2.610;2023-02-15T12:51:12;101242.59;;;15.20;94.35
55277;BME280;41136;51.478;-2.610;2023-02-15T12:53:34;101237.54;;;14.86;95.06